Time;durP1;ratioP1;P1;durP2;ratioP2;P2;SDS_P1;SDS_P2;PMS_P1;PMS_P2;Temp;Humidity;BMP_temperature;BMP_pressure;BME280_temperature;BME280_humidity;BME280_pressure;Samples;Min_cycle;Max_cycle;Signal;HPM_P1;HPM_P2
2022/01/31 00:01:31;;;;;;;13.75;5.43;;;;;;;4.92;70.84;101483.22;5086529;28;20038;-88
2022/01/31 00:03:57;;;;;;;16.98;6.28;;;;;;;4.90;71.16;101473.66;5085695;28;20032;-89
2022/01/31 00:06:22;;;;;;;20.08;6.57;;;;;;;4.79;71.59;101435.28;5083851;28;20024;-89
2022/01/31 00:08:50;;;;;;;13.43;5.60;;;;;;;4.81;71.76;101420.44;5088516;28;20387;-88
2022/01/31 00:11:15;;;;;;;22.65;8.15;;;;;;;4.76;71.93;101408.25;5084989;28;20028;-89
2022/01/31 00:13:45;;;;;;;18.35;6.30;;;;;;;4.84;71.81;101402.03;5074897;28;20032;-89
2022/01/31 00:16:15;;;;;;;15.98;7.35;;;;;;;4.88;72.13;101396.78;5079727;28;20027;-90
2022/01/31 00:18:41;;;;;;;17.48;5.38;;;;;;;4.95;71.50;101388.03;5083685;28;20117;-89
2022/01/31 00:21:07;;;;;;;20.23;6.72;;;;;;;4.96;71.54;101387.13;5083682;28;20052;-89
2022/01/31 00:23:32;;;;;;;22.10;8.35;;;;;;;4.97;71.87;101383.63;5086544;28;20028;-89
2022/01/31 00:25:58;;;;;;;19.88;7.38;;;;;;;4.88;71.92;101360.97;5085406;28;20031;-90
2022/01/31 00:28:23;;;;;;;15.88;5.55;;;;;;;5.03;71.85;101366.09;5074491;28;20071;-90
2022/01/31 00:30:49;;;;;;;11.75;6.05;;;;;;;5.01;72.15;101349.53;5078140;28;20553;-89
2022/01/31 00:33:14;;;;;;;20.45;7.50;;;;;;;5.07;72.11;101338.09;5076488;28;20562;-89
2022/01/31 00:35:40;;;;;;;17.13;5.80;;;;;;;5.15;72.27;101346.78;5077404;28;20491;-89
2022/01/31 00:38:05;;;;;;;21.17;7.00;;;;;;;4.95;73.04;101320.75;5077636;28;20081;-89
2022/01/31 00:40:30;;;;;;;23.00;7.25;;;;;;;4.99;72.77;101303.25;5077736;28;20110;-89
2022/01/31 00:42:56;;;;;;;13.95;4.63;;;;;;;5.08;72.99;101296.19;5072575;28;20024;-89
2022/01/31 00:45:27;;;;;;;13.38;5.32;;;;;;;5.07;74.12;101273.47;5083659;28;20044;-89
2022/01/31 00:48:04;;;;;;;17.75;6.75;;;;;;;4.79;75.97;101266.75;5084419;28;20036;-89
2022/01/31 00:50:39;;;;;;;21.10;7.05;;;;;;;4.60;78.49;101264.31;5085805;28;20016;-90
2022/01/31 00:53:05;;;;;;;22.52;7.28;;;;;;;4.52;80.35;101257.41;5084895;28;20479;-90
2022/01/31 00:55:30;;;;;;;23.58;8.07;;;;;;;4.26;82.09;101248.03;5085163;28;20028;-89
2022/01/31 00:57:55;;;;;;;20.80;8.80;;;;;;;4.29;82.87;101237.53;5086940;28;20076;-90
2022/01/31 01:00:21;;;;;;;20.05;6.22;;;;;;;4.26;84.62;101219.22;5080281;28;20151;-89
2022/01/31 01:02:46;;;;;;;18.77;7.90;;;;;;;4.23;83.07;101216.63;5080026;28;20111;-89
2022/01/31 01:05:13;;;;;;;23.38;7.72;;;;;;;4.08;85.33;101201.94;5083770;28;20479;-89
2022/01/31 01:07:39;;;;;;;20.45;7.15;;;;;;;4.00;86.58;101195.88;5077271;28;20489;-89
2022/01/31 01:10:05;;;;;;;17.73;5.55;;;;;;;4.04;86.48;101197.59;5075611;28;20028;-90
2022/01/31 01:12:30;;;;;;;22.63;7.93;;;;;;;3.93;87.14;101170.66;5083280;28;20055;-90
2022/01/31 01:14:55;;;;;;;20.92;7.97;;;;;;;4.03;87.54;101174.06;5084654;28;20027;-89
2022/01/31 01:17:21;;;;;;;34.67;9.63;;;;;;;3.90;88.80;101161.97;5080221;28;20024;-89
2022/01/31 01:19:46;;;;;;;28.00;8.82;;;;;;;3.87;89.63;101144.56;5077627;28;20426;-89
2022/01/31 01:22:12;;;;;;;15.35;6.45;;;;;;;4.04;90.01;101149.63;5086789;28;20039;-89
2022/01/31 01:24:38;;;;;;;18.27;7.43;;;;;;;3.86;90.55;101134.94;5085133;28;20031;-89
2022/01/31 01:27:03;;;;;;;29.13;9.45;;;;;;;3.74;91.38;101122.84;5081218;28;20055;-89
2022/01/31 01:29:29;;;;;;;22.33;8.18;;;;;;;3.87;91.18;101118.41;5082163;28;20530;-89
2022/01/31 01:31:54;;;;;;;35.72;11.95;;;;;;;3.83;91.83;101101.88;5078184;28;20105;-89
2022/01/31 01:34:21;;;;;;;21.00;8.00;;;;;;;3.89;90.99;101092.22;5086114;28;20055;-89
2022/01/31 01:36:50;;;;;;;22.52;8.05;;;;;;;3.94;91.29;101086.06;5078801;28;20035;-89
2022/01/31 01:39:15;;;;;;;21.25;7.97;;;;;;;3.90;91.48;101076.50;5081928;28;20115;-89
2022/01/31 01:41:40;;;;;;;29.42;10.20;;;;;;;3.90;91.58;101063.44;5082973;28;20126;-89
2022/01/31 01:44:06;;;;;;;15.57;6.50;;;;;;;4.06;91.65;101075.50;5084901;28;20054;-89
2022/01/31 01:46:31;;;;;;;21.58;7.07;;;;;;;4.07;91.33;101053.69;5081831;28;20497;-89
2022/01/31 01:48:57;;;;;;;1.05;1.00;;;;;;;3.95;91.48;101043.34;5075731;28;20031;-90
2022/01/31 01:51:22;;;;;;;0.10;0.10;;;;;;;3.95;91.00;101037.25;5085630;28;20028;-89
2022/01/31 01:53:47;;;;;;;0.10;0.10;;;;;;;4.00;90.62;101018.00;5081929;28;20055;-90
2022/01/31 01:56:14;;;;;;;0.10;0.10;;;;;;;4.15;90.41;101014.38;5087612;28;20479;-90
2022/01/31 01:58:42;;;;;;;0.20;0.20;;;;;;;4.23;90.05;101002.03;5083169;28;20119;-90
2022/01/31 02:01:10;;;;;;;0.10;0.10;;;;;;;4.26;90.13;100998.53;5081338;28;20032;-90
2022/01/31 02:03:37;;;;;;;0.10;0.10;;;;;;;4.29;89.82;100986.28;5089835;28;20025;-90
2022/01/31 02:06:03;;;;;;;0.10;0.10;;;;;;;4.38;89.87;100985.28;5081716;28;20025;-91
2022/01/31 02:08:39;;;;;;;0.10;0.10;;;;;;;4.34;90.00;100968.78;5078499;28;20438;-90
2022/01/31 02:11:04;;;;;;;0.10;0.10;;;;;;;4.43;90.01;100970.41;5080059;28;20074;-90
2022/01/31 02:13:29;;;;;;;0.10;0.10;;;;;;;4.40;89.97;100953.88;5078240;28;20395;-91
2022/01/31 02:15:55;;;;;;;0.10;0.10;;;;;;;4.44;89.99;100950.34;5080227;28;20024;-91
2022/01/31 02:18:24;;;;;;;0.03;0.03;;;;;;;4.48;89.83;100946.78;5081348;28;20027;-91
2022/01/31 02:20:50;;;;;;;0.10;0.10;;;;;;;4.50;89.86;100935.41;5088136;28;20044;-90
2022/01/31 02:23:17;;;;;;;0.10;0.10;;;;;;;4.55;89.66;100933.59;5075507;28;20032;-90
2022/01/31 02:26:01;;;;;;;0.10;0.10;;;;;;;4.64;89.78;100936.97;5085376;28;20028;-90
2022/01/31 02:28:27;;;;;;;0.10;0.10;;;;;;;4.68;89.71;100931.66;5086644;28;20024;-90
2022/01/31 02:30:54;;;;;;;0.10;0.10;;;;;;;4.66;89.80;100953.50;5081866;28;20040;-91
2022/01/31 02:33:19;;;;;;;0.08;0.08;;;;;;;4.57;90.59;100923.97;5086770;28;20391;-91
2022/01/31 02:35:51;;;;;;;0.57;0.57;;;;;;;4.67;90.55;100947.41;5086821;28;20103;-90
2022/01/31 02:38:17;;;;;;;;;;;;;;;4.60;91.28;100950.09;5091056;28;20589;-91
2022/01/31 02:40:44;;;;;;;0.00;0.00;;;;;;;4.57;91.24;100944.06;5086907;28;19912;-91
2022/01/31 02:43:10;;;;;;;0.10;0.10;;;;;;;4.63;91.32;100927.38;5082165;28;20024;-91
2022/01/31 02:45:35;;;;;;;0.00;0.00;;;;;;;4.70;91.41;100929.00;5087682;28;20044;-92
2022/01/31 02:48:02;;;;;;;0.00;0.00;;;;;;;4.80;91.38;100918.41;5080784;28;20020;-91
2022/01/31 02:50:28;;;;;;;0.05;0.05;;;;;;;4.80;91.21;100896.56;5083717;28;20059;-91
2022/01/31 02:53:09;;;;;;;0.10;0.10;;;;;;;4.95;91.17;100919.91;5081159;28;20056;-91
2022/01/31 02:55:35;;;;;;;0.10;0.10;;;;;;;4.88;91.33;100876.34;5082116;28;20030;-90
2022/01/31 02:58:00;;;;;;;0.10;0.10;;;;;;;4.95;91.15;100885.00;5087130;28;20029;-91
2022/01/31 03:00:25;;;;;;;0.10;0.10;;;;;;;5.01;91.27;100872.63;5088318;28;20386;-91
2022/01/31 03:02:50;;;;;;;0.10;0.10;;;;;;;5.02;91.33;100861.25;5080394;28;20078;-91
2022/01/31 03:05:16;;;;;;;0.10;0.10;;;;;;;5.14;91.34;100875.94;5085201;28;20077;-91
2022/01/31 03:07:41;;;;;;;0.10;0.10;;;;;;;5.10;91.16;100861.16;5083439;28;20034;-92
2022/01/31 03:10:07;;;;;;;0.10;0.10;;;;;;;5.21;91.26;100871.44;5084410;28;20363;-91
2022/01/31 03:12:32;;;;;;;0.10;0.10;;;;;;;5.25;91.23;100867.88;5074205;28;20036;-91
2022/01/31 03:14:58;;;;;;;0.10;0.10;;;;;;;5.34;91.21;100867.69;5091278;28;20024;-90
2022/01/31 03:17:23;;;;;;;0.10;0.10;;;;;;;5.41;91.16;100858.84;5088390;28;20550;-90
2022/01/31 03:19:53;;;;;;;0.10;0.10;;;;;;;5.45;91.16;100850.00;5082849;28;20446;-90
2022/01/31 03:22:20;;;;;;;0.10;0.10;;;;;;;5.44;91.41;100840.41;5080425;28;20028;-90
2022/01/31 03:24:45;;;;;;;0.10;0.10;;;;;;;5.46;91.30;100841.28;5083292;28;20694;-90
2022/01/31 03:27:11;;;;;;;0.10;0.10;;;;;;;5.46;91.41;100841.28;5085218;28;20039;-90
2022/01/31 03:29:36;;;;;;;0.10;0.10;;;;;;;5.54;91.47;100844.59;5082041;28;20024;-90
2022/01/31 03:32:02;;;;;;;0.10;0.10;;;;;;;5.69;91.54;100851.31;5082215;28;20055;-91
2022/01/31 03:34:27;;;;;;;0.10;0.10;;;;;;;5.68;91.36;100843.44;5075639;28;20032;-90
2022/01/31 03:36:52;;;;;;;0.10;0.10;;;;;;;5.60;91.31;100823.50;5078539;28;20427;-91
2022/01/31 03:39:18;;;;;;;0.10;0.10;;;;;;;5.59;91.43;100826.13;5068472;28;20024;-90
2022/01/31 03:41:43;;;;;;;0.10;0.10;;;;;;;5.69;91.54;100832.94;5089027;28;20028;-89
2022/01/31 03:44:08;;;;;;;0.10;0.10;;;;;;;5.67;91.46;100818.13;5079691;28;20542;-90
2022/01/31 03:46:35;;;;;;;0.00;0.00;;;;;;;5.72;91.05;100816.28;5085760;28;20486;-90
2022/01/31 03:49:00;;;;;;;0.10;0.10;;;;;;;5.71;91.43;100804.06;5081178;28;20032;-90
2022/01/31 03:51:25;;;;;;;0.10;0.10;;;;;;;5.77;91.75;100812.66;5087515;28;20024;-90
2022/01/31 03:53:51;;;;;;;0.10;0.10;;;;;;;5.71;91.35;100783.94;5082354;28;20020;-90
2022/01/31 03:56:16;;;;;;;0.10;0.10;;;;;;;5.86;91.34;100816.84;5082137;28;20030;-91
2022/01/31 03:58:41;;;;;;;0.10;0.10;;;;;;;5.78;91.54;100797.78;5082834;28;20054;-90
2022/01/31 04:01:07;;;;;;;0.10;0.10;;;;;;;5.79;91.44;100815.25;5082215;28;20147;-90
2022/01/31 04:03:34;;;;;;;0.10;0.10;;;;;;;5.84;91.50;100810.78;5086912;28;20115;-91
2022/01/31 04:05:59;;;;;;;0.10;0.10;;;;;;;5.82;91.51;100802.91;5085567;28;20028;-90
2022/01/31 04:08:25;;;;;;;0.10;0.10;;;;;;;5.80;91.74;100793.38;5081973;28;20043;-89
2022/01/31 04:10:50;;;;;;;0.10;0.10;;;;;;;5.89;91.54;100806.28;5082259;28;20035;-90
2022/01/31 04:13:18;;;;;;;0.10;0.10;;;;;;;5.96;91.46;100800.03;5087001;28;20034;-90
2022/01/31 04:15:43;;;;;;;0.10;0.10;;;;;;;5.92;91.39;100800.13;5081039;28;20028;-90
2022/01/31 04:18:09;;;;;;;0.00;0.00;;;;;;;5.96;91.60;100802.66;5084093;28;20035;-90
2022/01/31 04:20:34;;;;;;;0.10;0.10;;;;;;;5.98;91.47;100803.50;5085337;28;20514;-89
2022/01/31 04:23:08;;;;;;;0.08;0.08;;;;;;;5.94;91.71;100812.34;5081960;28;20028;-90
2022/01/31 04:25:53;;;;;;;0.10;0.10;;;;;;;5.88;91.55;100794.94;5081315;28;20111;-90
2022/01/31 04:28:31;;;;;;;0.10;0.10;;;;;;;5.98;91.70;100808.75;5080151;28;20036;-90
2022/01/31 04:33:23;;;;;;;0.10;0.10;;;;;;;5.96;91.53;100802.66;5080504;28;20124;-90
2022/01/31 04:35:49;;;;;;;0.10;0.10;;;;;;;5.88;91.47;100792.31;5078728;28;20027;-91
2022/01/31 04:38:15;;;;;;;0.10;0.10;;;;;;;5.94;91.41;100798.34;5076410;28;20036;-90
2022/01/31 04:40:40;;;;;;;0.10;0.10;;;;;;;5.83;91.48;100775.81;5081114;28;20028;-90
2022/01/31 04:43:06;;;;;;;0.10;0.10;;;;;;;5.79;91.44;100770.66;5085474;28;20126;-91
2022/01/31 04:45:31;;;;;;;0.10;0.10;;;;;;;5.89;91.33;100795.81;5081625;28;20472;-90
2022/01/31 04:47:57;;;;;;;0.00;0.00;;;;;;;5.76;91.27;100768.09;5077353;28;20031;-89
2022/01/31 04:50:22;;;;;;;0.10;0.10;;;;;;;5.83;91.38;100788.06;5084556;28;20024;-89
2022/01/31 04:52:47;;;;;;;0.10;0.10;;;;;;;5.79;91.51;100792.50;5083023;28;20039;-90
2022/01/31 04:55:13;;;;;;;0.10;0.10;;;;;;;5.80;91.53;100796.00;5082022;28;20042;-89
2022/01/31 04:57:40;;;;;;;0.10;0.10;;;;;;;5.83;91.32;100798.56;5076810;28;20024;-90
2022/01/31 05:00:08;;;;;;;0.10;0.10;;;;;;;5.78;91.23;100793.41;5082343;28;20708;-90
2022/01/31 05:02:34;;;;;;;0.10;0.10;;;;;;;5.76;91.28;100781.22;5082825;28;20050;-90
2022/01/31 05:04:59;;;;;;;0.10;0.10;;;;;;;5.70;91.33;100771.72;5083423;28;20480;-90
2022/01/31 05:07:25;;;;;;;0.10;0.10;;;;;;;5.66;91.46;100780.53;5070135;28;20058;-90
2022/01/31 05:09:50;;;;;;;0.00;0.00;;;;;;;5.66;91.20;100767.44;5084904;28;20028;-90
2022/01/31 05:12:16;;;;;;;0.10;0.10;;;;;;;5.63;91.37;100757.00;5081985;28;20387;-92
2022/01/31 05:14:41;;;;;;;9.55;1.23;;;;;;;5.64;89.03;100766.59;5084071;28;20472;-91
2022/01/31 05:17:06;;;;;;;5.00;0.80;;;;;;;5.66;86.01;100758.72;5086489;28;20024;-91
2022/01/31 05:19:32;;;;;;;4.40;1.13;;;;;;;5.71;89.18;100773.44;5080461;28;20190;-90
2022/01/31 05:21:57;;;;;;;2.45;1.15;;;;;;;5.54;87.86;100731.81;5071088;28;20032;-90
2022/01/31 05:24:23;;;;;;;7.03;1.45;;;;;;;5.70;85.95;100755.97;5079250;28;20016;-89
2022/01/31 05:26:50;;;;;;;5.03;1.60;;;;;;;5.65;88.15;100747.34;5083190;28;20024;-89
2022/01/31 05:29:19;;;;;;;4.75;0.98;;;;;;;5.65;86.22;100747.34;5082401;28;20020;-90
2022/01/31 05:31:44;;;;;;;6.10;1.30;;;;;;;5.71;88.82;100736.72;5080630;28;20044;-90
2022/01/31 05:34:11;;;;;;;7.93;1.50;;;;;;;5.81;88.23;100740.00;5076121;28;20468;-91
2022/01/31 05:36:37;;;;;;;8.27;1.38;;;;;;;5.82;87.00;100746.97;5082062;28;20047;-91
2022/01/31 05:39:02;;;;;;;6.88;1.55;;;;;;;5.78;86.28;100713.81;5085774;28;20056;-90
2022/01/31 05:41:27;;;;;;;4.25;0.80;;;;;;;5.81;85.44;100717.25;5081438;28;20107;-90
2022/01/31 05:43:53;;;;;;;7.65;1.95;;;;;;;5.86;87.41;100704.88;5083281;28;20081;-91
2022/01/31 05:46:18;;;;;;;3.78;1.00;;;;;;;5.89;86.87;100694.34;5082885;28;20028;-90
2022/01/31 05:48:43;;;;;;;3.70;1.15;;;;;;;5.78;83.51;100700.72;5077984;28;20399;-91
2022/01/31 05:51:22;;;;;;;6.35;0.85;;;;;;;5.76;87.92;100718.25;5082018;28;20032;-90
2022/01/31 05:53:49;;;;;;;2.72;1.13;;;;;;;5.52;87.92;100704.78;5080310;28;20028;-91
2022/01/31 05:56:16;;;;;;;3.88;0.85;;;;;;;5.45;87.45;100745.13;5084669;28;20027;-91
2022/01/31 05:58:42;;;;;;;11.40;1.63;;;;;;;5.26;87.36;100725.44;5085191;28;20059;-90
2022/01/31 06:01:08;;;;;;;4.28;0.93;;;;;;;5.25;86.18;100752.53;5086714;28;20024;-91
2022/01/31 06:03:33;;;;;;;7.72;1.00;;;;;;;5.17;87.34;100780.66;5088308;28;20035;-92
2022/01/31 06:05:59;;;;;;;4.25;0.85;;;;;;;4.97;87.90;100770.53;5075588;28;20029;-92
2022/01/31 06:08:25;;;;;;;5.88;1.65;;;;;;;4.64;88.86;100733.59;5081708;28;20376;-94
2022/01/31 06:10:52;;;;;;;11.48;1.33;;;;;;;4.58;89.25;100747.66;5086908;28;20034;-94
2022/01/31 06:13:23;;;;;;;8.73;1.70;;;;;;;4.61;90.22;100759.81;5085887;28;20483;-92
2022/01/31 06:15:49;;;;;;;8.02;1.27;;;;;;;4.66;89.95;100750.13;5092797;28;20062;-92
2022/01/31 06:18:15;;;;;;;2.67;0.70;;;;;;;4.71;89.18;100752.66;5080434;28;20459;-92
2022/01/31 06:20:41;;;;;;;8.55;1.20;;;;;;;4.69;89.95;100746.59;5085519;28;20032;-92
2022/01/31 06:23:06;;;;;;;4.47;0.70;;;;;;;4.74;89.31;100750.00;5077158;28;20118;-93
2022/01/31 06:25:32;;;;;;;9.27;1.17;;;;;;;4.73;89.94;100748.28;5084398;28;20115;-92
2022/01/31 06:27:57;;;;;;;5.30;1.45;;;;;;;4.65;88.81;100729.22;5086105;28;20468;-92
2022/01/31 06:30:23;;;;;;;10.35;1.80;;;;;;;4.75;89.46;100749.97;5083502;28;20054;-91
2022/01/31 06:32:48;;;;;;;13.07;3.03;;;;;;;4.72;89.33;100747.41;5079417;28;20021;-93
2022/01/31 06:35:14;;;;;;;6.63;2.03;;;;;;;4.78;89.85;100747.31;5086227;28;20031;-91
2022/01/31 06:37:40;;;;;;;5.25;1.58;;;;;;;4.76;88.61;100735.16;5088445;28;20024;-92
2022/01/31 06:40:06;;;;;;;9.13;1.40;;;;;;;4.74;88.89;100735.16;5082577;28;20282;-92
2022/01/31 06:42:31;;;;;;;1.30;0.40;;;;;;;4.82;88.02;100748.97;5086780;28;20395;-91
2022/01/31 06:44:57;;;;;;;3.22;0.70;;;;;;;4.74;86.85;100736.91;5084478;28;20035;-91
2022/01/31 06:47:23;;;;;;;2.47;0.73;;;;;;;4.86;88.60;100744.56;5078298;28;20032;-92
2022/01/31 06:49:49;;;;;;;5.28;1.02;;;;;;;4.79;87.62;100735.06;5080159;28;20434;-92
2022/01/31 06:52:15;;;;;;;5.03;1.48;;;;;;;4.76;89.09;100738.63;5079205;28;20480;-91
2022/01/31 06:54:42;;;;;;;3.42;0.75;;;;;;;4.78;89.20;100746.44;5079058;28;20016;-91
2022/01/31 06:57:08;;;;;;;6.30;1.00;;;;;;;4.77;86.64;100742.09;5082861;28;20020;-93
2022/01/31 06:59:33;;;;;;;7.25;1.42;;;;;;;4.78;90.29;100751.69;5078014;28;20031;-91
2022/01/31 07:01:58;;;;;;;8.32;2.28;;;;;;;4.77;89.37;100744.72;5087685;28;20024;-91
2022/01/31 07:04:24;;;;;;;2.90;1.08;;;;;;;4.79;89.04;100741.16;5081777;28;20032;-91
2022/01/31 07:06:49;;;;;;;2.22;0.80;;;;;;;4.81;88.04;100746.41;5087951;28;20383;-92
2022/01/31 07:09:14;;;;;;;2.00;0.73;;;;;;;4.73;88.66;100738.66;5088784;28;20443;-92
2022/01/31 07:11:42;;;;;;;0.60;0.55;;;;;;;4.69;88.78;100723.91;5086689;28;20047;-92
2022/01/31 07:14:29;;;;;;;9.38;1.80;;;;;;;4.80;89.99;100744.66;5085692;28;20533;-91
2022/01/31 07:16:53;;;;;;;4.05;0.82;;;;;;;4.78;88.07;100739.44;5085808;28;20034;-91
2022/01/31 07:19:22;;;;;;;7.93;1.48;;;;;;;4.74;87.66;100729.91;5086009;28;20036;-93
2022/01/31 07:21:49;;;;;;;6.97;1.52;;;;;;;4.67;88.84;100709.13;5080488;28;20020;-93
2022/01/31 07:24:31;;;;;;;3.67;0.73;;;;;;;4.64;88.24;100720.50;5084985;28;20073;-91
2022/01/31 07:26:57;;;;;;;2.72;1.45;;;;;;;4.74;88.49;100723.81;5077192;28;20021;-92
2022/01/31 07:29:22;;;;;;;15.27;1.20;;;;;;;4.81;86.32;100741.16;5081886;28;20495;-92
2022/01/31 07:31:49;;;;;;;8.18;1.55;;;;;;;4.78;89.20;100746.44;5082148;28;20095;-91
2022/01/31 07:34:17;;;;;;;6.18;1.00;;;;;;;4.72;89.89;100741.31;5085985;28;20043;-91
2022/01/31 07:36:43;;;;;;;6.60;2.38;;;;;;;4.77;89.55;100752.56;5087044;28;20506;-92
2022/01/31 07:39:09;;;;;;;8.38;1.58;;;;;;;4.71;90.72;100758.78;5068283;28;20046;-93
2022/01/31 07:41:34;;;;;;;4.47;0.90;;;;;;;4.75;89.62;100760.44;5087695;28;20040;-92
2022/01/31 07:44:00;;;;;;;17.73;2.10;;;;;;;4.61;89.98;100750.19;5083851;28;20518;-92
2022/01/31 07:46:25;;;;;;;13.55;1.70;;;;;;;4.78;90.62;100770.88;5081660;28;20035;-91
2022/01/31 07:48:53;;;;;;;2.95;1.15;;;;;;;4.80;89.54;100768.22;5088078;28;20024;-92
2022/01/31 07:51:19;;;;;;;4.40;0.88;;;;;;;4.68;90.43;100745.75;5063543;28;20063;-91
2022/01/31 07:53:44;;;;;;;12.02;1.83;;;;;;;4.72;90.14;100757.91;5086063;28;20105;-91
2022/01/31 07:56:10;;;;;;;1.98;0.90;;;;;;;4.68;89.91;100750.97;5084655;28;20475;-92
2022/01/31 07:58:38;;;;;;;9.98;2.03;;;;;;;4.64;90.48;100737.97;5075236;28;20036;-92
2022/01/31 08:01:04;;;;;;;3.08;1.10;;;;;;;4.74;87.94;100760.47;5079505;28;20021;-92
2022/01/31 08:03:30;;;;;;;8.93;2.00;;;;;;;4.68;90.17;100743.13;5083063;28;20032;-91
2022/01/31 08:05:56;;;;;;;15.27;1.80;;;;;;;4.69;90.27;100751.84;5087224;28;20027;-92
2022/01/31 08:08:23;;;;;;;5.50;1.02;;;;;;;4.66;89.11;100747.50;5081809;28;20031;-91
2022/01/31 08:10:49;;;;;;;3.90;1.08;;;;;;;4.80;89.35;100763.88;5083733;28;20039;-91
2022/01/31 08:13:15;;;;;;;4.60;1.23;;;;;;;4.82;89.74;100764.69;5080666;28;20032;-91
2022/01/31 08:16:00;;;;;;;6.43;1.50;;;;;;;4.77;89.62;100749.97;5085572;28;20053;-91
2022/01/31 08:18:25;;;;;;;4.28;1.23;;;;;;;4.83;90.50;100765.56;5077453;28;20050;-92
2022/01/31 08:20:50;;;;;;;3.53;2.00;;;;;;;4.79;90.13;100759.50;5078876;28;20503;-91
2022/01/31 08:23:16;;;;;;;3.13;0.60;;;;;;;4.81;90.07;100767.34;5084344;28;20115;-91
2022/01/31 08:25:47;;;;;;;12.60;1.98;;;;;;;4.88;89.71;100774.19;5082358;28;20653;-92
2022/01/31 08:28:12;;;;;;;6.85;1.13;;;;;;;4.80;88.55;100756.00;5074885;28;20036;-92
2022/01/31 08:31:02;;;;;;;1.80;1.02;;;;;;;4.82;89.19;100775.16;5083639;28;20044;-91
2022/01/31 08:33:44;;;;;;;4.97;1.33;;;;;;;4.88;88.09;100784.66;5076637;28;20116;-91
2022/01/31 08:36:10;;;;;;;4.85;1.30;;;;;;;4.89;88.26;100781.16;5085022;28;20460;-91
2022/01/31 08:38:39;;;;;;;4.10;1.20;;;;;;;4.90;89.38;100756.72;5085070;28;20032;-91
2022/01/31 08:41:05;;;;;;;22.80;1.55;;;;;;;4.83;90.17;100787.38;5082682;28;20136;-92
2022/01/31 08:43:31;;;;;;;5.90;1.05;;;;;;;4.84;90.68;100791.72;5087161;28;20077;-92
2022/01/31 08:45:57;;;;;;;6.82;1.88;;;;;;;4.93;90.55;100802.94;5079085;28;20020;-92
2022/01/31 08:48:27;;;;;;;3.05;0.85;;;;;;;4.89;89.69;100788.16;5082728;28;20020;-91
2022/01/31 08:50:54;;;;;;;7.75;1.38;;;;;;;4.89;89.37;100773.28;5089350;28;20023;-91
2022/01/31 08:53:19;;;;;;;6.32;1.42;;;;;;;4.92;89.04;100778.47;5081720;28;20593;-91
2022/01/31 08:55:57;;;;;;;7.95;1.27;;;;;;;4.98;87.94;100780.13;5087197;28;20020;-92
2022/01/31 08:58:23;;;;;;;6.22;1.13;;;;;;;4.92;90.50;100788.97;5079868;28;20050;-91
2022/01/31 09:00:57;;;;;;;9.77;1.02;;;;;;;5.01;86.91;100812.38;5085617;28;20023;-92
2022/01/31 09:03:41;;;;;;;4.65;1.08;;;;;;;4.95;88.34;100786.31;5074188;28;20615;-91
2022/01/31 09:06:11;;;;;;;7.45;1.17;;;;;;;5.03;88.15;100781.75;5084688;28;20052;-92
2022/01/31 09:08:38;;;;;;;8.10;1.73;;;;;;;5.02;89.61;100771.31;5087633;28;20483;-91
2022/01/31 09:11:04;;;;;;;4.07;0.90;;;;;;;5.03;88.67;100821.06;5085490;28;20244;-92
2022/01/31 09:13:29;;;;;;;8.30;1.23;;;;;;;5.00;88.32;100818.53;5080820;28;20124;-92
2022/01/31 09:15:55;;;;;;;8.68;1.27;;;;;;;4.96;88.50;100818.59;5083872;28;20123;-92
2022/01/31 09:18:20;;;;;;;4.28;1.20;;;;;;;4.91;88.62;100810.81;5081511;28;20465;-91
2022/01/31 09:20:46;;;;;;;13.48;2.40;;;;;;;4.89;89.06;100789.00;5075304;28;20028;-91
2022/01/31 09:23:11;;;;;;;11.55;1.58;;;;;;;4.98;88.44;100817.66;5078248;28;20491;-91
2022/01/31 09:25:43;;;;;;;11.05;1.15;;;;;;;4.99;87.51;100803.69;5080206;28;20043;-92
2022/01/31 09:28:10;;;;;;;9.63;2.65;;;;;;;4.98;87.38;100815.03;5077991;28;20077;-91
2022/01/31 09:30:35;;;;;;;4.45;1.52;;;;;;;4.90;88.11;100755.84;5084065;28;20077;-92
2022/01/31 09:33:00;;;;;;;4.82;0.80;;;;;;;4.96;88.62;100792.41;5081602;28;20484;-91
2022/01/31 09:35:26;;;;;;;6.78;1.33;;;;;;;4.93;88.14;100787.22;5081118;28;20085;-91
2022/01/31 09:37:52;;;;;;;15.00;2.58;;;;;;;5.09;88.66;100810.50;5085544;28;20012;-92
2022/01/31 09:40:19;;;;;;;7.03;1.15;;;;;;;5.06;88.07;100814.91;5084200;28;20033;-91
2022/01/31 09:46:00;;;;;;;8.40;1.42;;;;;;;5.03;87.65;100836.78;5074355;28;20036;-92
2022/01/31 09:48:40;;;;;;;6.60;1.50;;;;;;;5.07;86.32;100846.31;5079182;28;20398;-91
2022/01/31 09:51:10;;;;;;;10.13;1.67;;;;;;;5.16;89.49;100850.53;5072332;28;20020;-91
2022/01/31 09:53:38;;;;;;;4.47;1.30;;;;;;;5.12;87.82;100831.38;5085086;28;20547;-92
2022/01/31 09:56:08;;;;;;;14.18;1.65;;;;;;;5.08;88.92;100837.59;5077689;28;20021;-90
2022/01/31 09:58:34;;;;;;;5.53;0.80;;;;;;;5.03;88.69;100844.66;5082948;28;20581;-91
2022/01/31 10:01:06;;;;;;;12.43;1.80;;;;;;;5.00;87.58;100847.34;5074959;28;20036;-92
2022/01/31 10:03:31;;;;;;;7.85;1.20;;;;;;;5.06;89.30;100873.44;5082571;28;20040;-91
2022/01/31 10:05:57;;;;;;;10.65;1.90;;;;;;;5.08;89.02;100881.25;5070181;28;20039;-91
2022/01/31 10:08:28;;;;;;;6.90;2.47;;;;;;;5.05;88.16;100891.81;5075138;28;20078;-92
2022/01/31 10:11:00;;;;;;;10.15;1.42;;;;;;;5.05;88.24;100865.59;5072817;28;20359;-91
2022/01/31 10:16:26;;;;;;;4.15;1.70;;;;;;;5.14;86.73;100890.78;5085678;28;20067;-90
2022/01/31 10:19:08;;;;;;;5.60;1.73;;;;;;;5.17;86.80;100880.22;5083190;28;20111;-91
2022/01/31 10:21:57;;;;;;;13.70;2.47;;;;;;;5.23;85.14;100890.63;5074366;28;20034;-90
2022/01/31 10:24:24;;;;;;;7.05;1.52;;;;;;;5.18;86.42;100885.47;5078864;28;20039;-91
2022/01/31 10:26:49;;;;;;;12.40;2.17;;;;;;;5.23;87.69;100898.50;5078369;28;20294;-91
2022/01/31 10:29:16;;;;;;;16.42;2.75;;;;;;;5.27;89.62;100911.53;5079566;28;20031;-90
2022/01/31 10:32:01;;;;;;;15.80;2.65;;;;;;;5.26;87.09;100917.63;5082619;28;20407;-91
2022/01/31 10:34:29;;;;;;;10.65;1.83;;;;;;;5.21;88.31;100905.50;5078006;28;20024;-91
2022/01/31 10:36:54;;;;;;;10.77;2.75;;;;;;;5.30;88.22;100913.22;5074151;28;20035;-90
2022/01/31 10:45:32;;;;;;;16.10;2.35;;;;;;;5.37;88.42;100915.72;5075034;28;20576;-91
2022/01/31 10:53:47;;;;;;;12.70;2.88;;;;;;;5.38;87.17;100938.41;5089732;28;20040;-91
2022/01/31 10:56:13;;;;;;;13.57;2.88;;;;;;;5.34;88.20;100941.09;5075550;28;20012;-91
2022/01/31 10:58:54;;;;;;;17.08;3.42;;;;;;;5.43;88.90;100943.56;5085954;28;20027;-90
2022/01/31 11:01:19;;;;;;;22.08;1.90;;;;;;;5.35;87.75;100937.59;5072624;28;20097;-91
2022/01/31 11:03:45;;;;;;;15.70;2.60;;;;;;;5.37;85.62;100941.94;5081802;28;20031;-91
2022/01/31 11:06:12;;;;;;;11.77;1.75;;;;;;;5.39;85.79;100923.53;5079513;28;20498;-90
2022/01/31 11:08:39;;;;;;;18.17;2.10;;;;;;;5.40;89.04;100946.22;5083699;28;20118;-90
2022/01/31 11:11:05;;;;;;;15.02;2.92;;;;;;;5.40;88.76;100961.97;5087442;28;20539;-90
2022/01/31 11:13:37;;;;;;;7.53;1.48;;;;;;;5.35;85.79;100948.94;5082452;28;20067;-90
2022/01/31 11:16:04;;;;;;;6.80;1.40;;;;;;;5.42;88.97;100972.44;5074339;28;20400;-90
2022/01/31 11:18:32;;;;;;;10.48;2.05;;;;;;;5.43;86.47;100966.31;5077384;28;20035;-91
2022/01/31 11:21:18;;;;;;;18.95;3.20;;;;;;;5.38;87.48;100969.00;5080267;28;20028;-90
2022/01/31 11:23:49;;;;;;;12.18;2.40;;;;;;;5.39;86.12;100970.72;5079352;28;20028;-90
2022/01/31 11:26:18;;;;;;;26.35;3.72;;;;;;;5.40;87.59;100963.72;5082077;28;20051;-90
2022/01/31 11:28:47;;;;;;;9.65;2.05;;;;;;;5.25;86.29;100963.09;5082110;28;20662;-90
2022/01/31 11:31:12;;;;;;;10.52;2.50;;;;;;;5.32;86.66;100974.34;5082098;28;20116;-90
2022/01/31 11:33:38;;;;;;;14.23;1.63;;;;;;;5.32;86.25;100969.13;5079417;28;20020;-90
2022/01/31 11:36:04;;;;;;;11.82;1.90;;;;;;;5.33;87.31;100976.06;5088580;28;20023;-91
2022/01/31 11:38:29;;;;;;;10.68;2.40;;;;;;;5.37;87.89;100991.72;5082163;28;20035;-90
2022/01/31 11:41:01;;;;;;;14.73;2.60;;;;;;;5.40;87.04;100995.19;5083643;28;20035;-89
2022/01/31 11:43:26;;;;;;;25.00;2.83;;;;;;;5.36;88.45;100996.97;5083890;28;20037;-90
2022/01/31 11:45:52;;;;;;;12.05;2.35;;;;;;;5.35;87.84;100995.25;5080669;28;20327;-90
2022/01/31 11:48:19;;;;;;;11.00;1.92;;;;;;;5.34;87.00;100991.78;5082541;28;20035;-90
2022/01/31 11:50:47;;;;;;;23.75;3.05;;;;;;;5.35;87.79;100988.25;5082603;28;20780;-90
2022/01/31 11:53:13;;;;;;;15.50;1.85;;;;;;;5.36;89.20;101026.72;5083235;28;20070;-90